sensor_id;sensor_type;location;lat;lon;timestamp;pressure;altitude;pressure_sealevel;temperature;humidity
2785;BME280;57944;48.722;9.316;2023-04-30T00:02:23;98339.94;;;11.62;100.00
2785;BME280;57944;48.722;9.316;2023-04-30T00:04:53;98339.50;;;11.58;100.00
2785;BME280;57944;48.722;9.316;2023-04-30T00:07:23;98350.25;;;11.47;100.00
2785;BME280;57944;48.722;9.316;2023-04-30T00:09:53;98355.78;;;11.51;100.00
2785;BME280;57944;48.722;9.316;2023-04-30T00:12:23;98349.16;;;11.63;100.00
2785;BME280;57944;48.722;9.316;2023-04-30T00:14:56;98352.88;;;11.60;100.00
2785;BME280;57944;48.722;9.316;2023-04-30T00:17:27;98358.38;;;11.57;100.00
2785;BME280;57944;48.722;9.316;2023-04-30T00:19:57;98355.97;;;11.56;100.00
2785;BME280;57944;48.722;9.316;2023-04-30T00:22:27;98356.34;;;11.46;100.00
2785;BME280;57944;48.722;9.316;2023-04-30T00:24:59;98363.22;;;11.46;100.00
2785;BME280;57944;48.722;9.316;2023-04-30T00:27:29;98354.34;;;11.41;100.00
2785;BME280;57944;48.722;9.316;2023-04-30T00:30:02;98351.28;;;11.25;100.00
2785;BME280;57944;48.722;9.316;2023-04-30T00:32:32;98349.59;;;11.32;100.00
2785;BME280;57944;48.722;9.316;2023-04-30T00:35:03;98345.91;;;11.41;100.00
2785;BME280;57944;48.722;9.316;2023-04-30T00:37:33;98348.66;;;11.39;100.00
2785;BME280;57944;48.722;9.316;2023-04-30T00:40:04;98348.38;;;11.28;100.00
2785;BME280;57944;48.722;9.316;2023-04-30T00:42:34;98354.28;;;11.28;100.00
2785;BME280;57944;48.722;9.316;2023-04-30T00:45:08;98349.97;;;11.29;100.00
2785;BME280;57944;48.722;9.316;2023-04-30T00:47:38;98364.63;;;11.20;100.00
2785;BME280;57944;48.722;9.316;2023-04-30T00:50:08;98360.09;;;11.22;100.00
2785;BME280;57944;48.722;9.316;2023-04-30T00:52:42;98360.88;;;11.23;100.00
2785;BME280;57944;48.722;9.316;2023-04-30T00:55:13;98360.44;;;11.12;100.00
2785;BME280;57944;48.722;9.316;2023-04-30T00:57:42;98354.47;;;10.99;100.00
2785;BME280;57944;48.722;9.316;2023-04-30T01:00:16;98360.75;;;11.03;100.00
2785;BME280;57944;48.722;9.316;2023-04-30T01:02:47;98362.09;;;11.27;100.00
2785;BME280;57944;48.722;9.316;2023-04-30T01:05:17;98368.50;;;11.16;100.00
2785;BME280;57944;48.722;9.316;2023-04-30T01:07:49;98358.44;;;11.08;100.00
2785;BME280;57944;48.722;9.316;2023-04-30T01:10:20;98359.19;;;11.02;100.00
2785;BME280;57944;48.722;9.316;2023-04-30T01:12:55;98357.97;;;10.98;100.00
2785;BME280;57944;48.722;9.316;2023-04-30T01:15:35;98358.56;;;11.00;100.00
2785;BME280;57944;48.722;9.316;2023-04-30T01:18:12;98367.25;;;11.05;100.00
2785;BME280;57944;48.722;9.316;2023-04-30T01:20:48;98361.38;;;11.05;100.00
2785;BME280;57944;48.722;9.316;2023-04-30T01:23:28;98366.34;;;11.13;100.00
2785;BME280;57944;48.722;9.316;2023-04-30T01:26:12;98351.88;;;11.20;100.00
2785;BME280;57944;48.722;9.316;2023-04-30T01:28:46;98355.41;;;10.98;100.00
2785;BME280;57944;48.722;9.316;2023-04-30T01:31:19;98343.78;;;10.88;100.00
2785;BME280;57944;48.722;9.316;2023-04-30T01:33:49;98350.00;;;10.79;100.00
2785;BME280;57944;48.722;9.316;2023-04-30T01:39:30;98346.50;;;10.59;100.00
2785;BME280;57944;48.722;9.316;2023-04-30T01:42:08;98348.78;;;10.54;100.00
2785;BME280;57944;48.722;9.316;2023-04-30T01:44:54;98347.81;;;10.55;100.00
2785;BME280;57944;48.722;9.316;2023-04-30T01:47:32;98336.41;;;10.50;100.00
2785;BME280;57944;48.722;9.316;2023-04-30T01:50:14;98336.78;;;10.47;100.00
2785;BME280;57944;48.722;9.316;2023-04-30T01:52:51;98344.47;;;10.54;100.00
2785;BME280;57944;48.722;9.316;2023-04-30T01:55:27;98349.81;;;10.59;100.00
2785;BME280;57944;48.722;9.316;2023-04-30T01:58:02;98347.19;;;10.74;100.00
2785;BME280;57944;48.722;9.316;2023-04-30T02:00:36;98353.97;;;10.88;100.00
2785;BME280;57944;48.722;9.316;2023-04-30T02:03:07;98354.72;;;10.82;100.00
2785;BME280;57944;48.722;9.316;2023-04-30T02:05:37;98353.16;;;10.81;100.00
2785;BME280;57944;48.722;9.316;2023-04-30T02:08:07;98345.25;;;10.76;100.00
2785;BME280;57944;48.722;9.316;2023-04-30T02:10:37;98347.56;;;10.71;100.00
2785;BME280;57944;48.722;9.316;2023-04-30T02:13:07;98348.88;;;10.67;100.00
2785;BME280;57944;48.722;9.316;2023-04-30T02:15:40;98346.81;;;10.77;100.00
2785;BME280;57944;48.722;9.316;2023-04-30T02:18:09;98349.22;;;10.79;100.00
2785;BME280;57944;48.722;9.316;2023-04-30T02:20:40;98353.53;;;10.78;100.00
2785;BME280;57944;48.722;9.316;2023-04-30T02:23:10;98347.44;;;10.79;100.00
2785;BME280;57944;48.722;9.316;2023-04-30T02:25:40;98344.88;;;10.79;100.00
2785;BME280;57944;48.722;9.316;2023-04-30T02:28:10;98350.28;;;10.69;100.00
2785;BME280;57944;48.722;9.316;2023-04-30T02:30:43;98337.91;;;10.66;100.00
2785;BME280;57944;48.722;9.316;2023-04-30T02:33:15;98347.03;;;10.54;100.00
2785;BME280;57944;48.722;9.316;2023-04-30T02:35:45;98339.38;;;10.54;100.00
2785;BME280;57944;48.722;9.316;2023-04-30T02:38:15;98340.56;;;10.80;100.00
2785;BME280;57944;48.722;9.316;2023-04-30T02:40:45;98342.22;;;10.87;100.00
2785;BME280;57944;48.722;9.316;2023-04-30T02:43:15;98347.41;;;11.01;100.00
2785;BME280;57944;48.722;9.316;2023-04-30T02:45:48;98341.47;;;10.93;100.00
2785;BME280;57944;48.722;9.316;2023-04-30T02:48:18;98348.88;;;10.88;100.00
2785;BME280;57944;48.722;9.316;2023-04-30T02:50:48;98344.50;;;11.04;100.00
2785;BME280;57944;48.722;9.316;2023-04-30T02:53:18;98347.72;;;10.91;100.00
2785;BME280;57944;48.722;9.316;2023-04-30T02:55:48;98340.94;;;10.77;100.00
2785;BME280;57944;48.722;9.316;2023-04-30T02:58:18;98342.16;;;10.81;100.00
2785;BME280;57944;48.722;9.316;2023-04-30T03:00:51;98346.94;;;10.69;100.00
2785;BME280;57944;48.722;9.316;2023-04-30T03:03:22;98351.03;;;10.63;100.00
2785;BME280;57944;48.722;9.316;2023-04-30T03:05:52;98352.53;;;10.58;100.00
2785;BME280;57944;48.722;9.316;2023-04-30T03:08:25;98350.72;;;10.73;100.00
2785;BME280;57944;48.722;9.316;2023-04-30T03:10:55;98347.84;;;10.83;100.00
2785;BME280;57944;48.722;9.316;2023-04-30T03:13:26;98348.44;;;10.78;100.00
2785;BME280;57944;48.722;9.316;2023-04-30T03:16:00;98357.63;;;10.79;100.00
2785;BME280;57944;48.722;9.316;2023-04-30T03:18:30;98362.00;;;10.64;100.00
2785;BME280;57944;48.722;9.316;2023-04-30T03:21:00;98357.72;;;10.64;100.00
2785;BME280;57944;48.722;9.316;2023-04-30T03:23:30;98360.56;;;10.55;100.00
2785;BME280;57944;48.722;9.316;2023-04-30T03:26:00;98349.75;;;10.52;100.00
2785;BME280;57944;48.722;9.316;2023-04-30T03:28:31;98352.19;;;10.39;100.00
2785;BME280;57944;48.722;9.316;2023-04-30T03:31:03;98345.09;;;10.20;100.00
2785;BME280;57944;48.722;9.316;2023-04-30T03:33:34;98352.22;;;10.10;100.00
2785;BME280;57944;48.722;9.316;2023-04-30T03:36:04;98347.94;;;10.10;100.00
2785;BME280;57944;48.722;9.316;2023-04-30T03:38:35;98340.81;;;10.05;100.00
2785;BME280;57944;48.722;9.316;2023-04-30T03:41:05;98336.91;;;10.24;100.00
2785;BME280;57944;48.722;9.316;2023-04-30T03:43:35;98341.22;;;10.24;100.00
2785;BME280;57944;48.722;9.316;2023-04-30T03:46:08;98339.25;;;10.04;100.00
2785;BME280;57944;48.722;9.316;2023-04-30T03:48:38;98346.88;;;10.04;100.00
2785;BME280;57944;48.722;9.316;2023-04-30T03:51:08;98346.53;;;10.07;100.00
2785;BME280;57944;48.722;9.316;2023-04-30T03:53:38;98341.69;;;10.13;100.00
2785;BME280;57944;48.722;9.316;2023-04-30T03:56:08;98336.13;;;10.24;100.00
2785;BME280;57944;48.722;9.316;2023-04-30T03:58:38;98337.03;;;10.31;100.00
2785;BME280;57944;48.722;9.316;2023-04-30T04:01:11;98336.13;;;10.24;100.00
2785;BME280;57944;48.722;9.316;2023-04-30T04:03:41;98337.38;;;10.28;100.00
2785;BME280;57944;48.722;9.316;2023-04-30T04:06:12;98342.13;;;10.31;100.00
2785;BME280;57944;48.722;9.316;2023-04-30T04:08:42;98354.00;;;10.45;100.00
2785;BME280;57944;48.722;9.316;2023-04-30T04:11:13;98357.50;;;10.44;100.00
2785;BME280;57944;48.722;9.316;2023-04-30T04:13:43;98347.69;;;10.41;100.00
2785;BME280;57944;48.722;9.316;2023-04-30T04:16:15;98357.94;;;10.48;100.00
2785;BME280;57944;48.722;9.316;2023-04-30T04:18:45;98356.97;;;10.49;100.00
2785;BME280;57944;48.722;9.316;2023-04-30T04:21:16;98353.81;;;10.47;100.00
2785;BME280;57944;48.722;9.316;2023-04-30T04:23:46;98358.59;;;10.35;100.00
2785;BME280;57944;48.722;9.316;2023-04-30T04:26:16;98354.47;;;10.19;100.00
2785;BME280;57944;48.722;9.316;2023-04-30T04:28:47;98357.78;;;9.98;100.00
2785;BME280;57944;48.722;9.316;2023-04-30T04:31:20;98353.53;;;10.05;100.00
2785;BME280;57944;48.722;9.316;2023-04-30T04:33:51;98359.19;;;10.01;100.00
2785;BME280;57944;48.722;9.316;2023-04-30T04:36:24;98360.84;;;9.94;100.00
2785;BME280;57944;48.722;9.316;2023-04-30T04:38:56;98364.84;;;9.81;100.00
2785;BME280;57944;48.722;9.316;2023-04-30T04:41:28;98358.88;;;10.25;100.00
2785;BME280;57944;48.722;9.316;2023-04-30T04:43:59;98359.75;;;10.33;100.00
2785;BME280;57944;48.722;9.316;2023-04-30T04:46:33;98365.78;;;10.46;100.00
2785;BME280;57944;48.722;9.316;2023-04-30T04:49:04;98375.69;;;10.56;100.00
2785;BME280;57944;48.722;9.316;2023-04-30T04:51:34;98365.91;;;10.60;100.00
2785;BME280;57944;48.722;9.316;2023-04-30T04:54:06;98366.97;;;10.72;100.00
2785;BME280;57944;48.722;9.316;2023-04-30T04:56:36;98367.75;;;10.72;100.00
2785;BME280;57944;48.722;9.316;2023-04-30T04:59:06;98365.41;;;10.71;100.00
2785;BME280;57944;48.722;9.316;2023-04-30T05:01:38;98361.88;;;10.72;100.00
2785;BME280;57944;48.722;9.316;2023-04-30T05:04:09;98368.59;;;11.01;100.00
2785;BME280;57944;48.722;9.316;2023-04-30T05:06:40;98358.06;;;11.11;100.00
2785;BME280;57944;48.722;9.316;2023-04-30T05:09:10;98355.47;;;11.32;100.00
2785;BME280;57944;48.722;9.316;2023-04-30T05:11:40;98360.56;;;11.32;100.00
2785;BME280;57944;48.722;9.316;2023-04-30T05:14:12;98352.38;;;11.37;100.00
2785;BME280;57944;48.722;9.316;2023-04-30T05:16:44;98362.28;;;11.53;100.00
2785;BME280;57944;48.722;9.316;2023-04-30T05:19:15;98357.66;;;11.70;100.00
2785;BME280;57944;48.722;9.316;2023-04-30T05:21:45;98362.16;;;11.68;100.00
2785;BME280;57944;48.722;9.316;2023-04-30T05:24:15;98365.59;;;11.89;100.00
2785;BME280;57944;48.722;9.316;2023-04-30T05:26:44;98360.53;;;12.02;100.00
2785;BME280;57944;48.722;9.316;2023-04-30T05:29:14;98366.72;;;12.27;100.00
2785;BME280;57944;48.722;9.316;2023-04-30T05:31:47;98362.25;;;12.43;100.00
2785;BME280;57944;48.722;9.316;2023-04-30T05:34:17;98365.81;;;12.68;100.00
2785;BME280;57944;48.722;9.316;2023-04-30T05:36:47;98363.06;;;12.90;100.00
2785;BME280;57944;48.722;9.316;2023-04-30T05:39:17;98363.84;;;13.30;100.00
2785;BME280;57944;48.722;9.316;2023-04-30T05:41:47;98362.91;;;13.83;100.00
2785;BME280;57944;48.722;9.316;2023-04-30T05:44:19;98363.28;;;13.93;100.00
2785;BME280;57944;48.722;9.316;2023-04-30T05:46:51;98366.34;;;14.08;100.00
2785;BME280;57944;48.722;9.316;2023-04-30T05:49:21;98369.75;;;14.34;96.31
2785;BME280;57944;48.722;9.316;2023-04-30T05:51:51;98373.09;;;14.73;93.17
2785;BME280;57944;48.722;9.316;2023-04-30T05:54:21;98367.75;;;15.00;87.86
2785;BME280;57944;48.722;9.316;2023-04-30T05:56:51;98375.59;;;15.67;85.87
2785;BME280;57944;48.722;9.316;2023-04-30T05:59:21;98377.91;;;16.23;81.23
2785;BME280;57944;48.722;9.316;2023-04-30T06:01:54;98378.22;;;17.11;70.41
2785;BME280;57944;48.722;9.316;2023-04-30T06:04:24;98376.28;;;17.53;65.68
2785;BME280;57944;48.722;9.316;2023-04-30T06:06:54;98376.66;;;17.10;65.76
2785;BME280;57944;48.722;9.316;2023-04-30T06:09:24;98372.16;;;16.82;67.93
2785;BME280;57944;48.722;9.316;2023-04-30T06:11:54;98383.72;;;17.03;71.62
2785;BME280;57944;48.722;9.316;2023-04-30T06:14:24;98373.94;;;17.52;64.96
2785;BME280;57944;48.722;9.316;2023-04-30T06:16:57;98375.38;;;18.12;59.66
2785;BME280;57944;48.722;9.316;2023-04-30T06:19:27;98374.13;;;17.62;60.75
2785;BME280;57944;48.722;9.316;2023-04-30T06:21:57;98374.59;;;18.57;57.91
2785;BME280;57944;48.722;9.316;2023-04-30T06:24:27;98373.50;;;19.20;54.78
2785;BME280;57944;48.722;9.316;2023-04-30T06:26:57;98379.66;;;20.02;53.33
2785;BME280;57944;48.722;9.316;2023-04-30T06:29:27;98381.84;;;19.88;50.85
2785;BME280;57944;48.722;9.316;2023-04-30T06:32:00;98371.31;;;19.12;52.84
2785;BME280;57944;48.722;9.316;2023-04-30T06:34:32;98376.13;;;18.86;54.38
2785;BME280;57944;48.722;9.316;2023-04-30T06:37:02;98375.09;;;18.87;53.20
2785;BME280;57944;48.722;9.316;2023-04-30T06:39:32;98381.69;;;18.78;53.71
2785;BME280;57944;48.722;9.316;2023-04-30T06:42:02;98372.94;;;18.50;54.31
2785;BME280;57944;48.722;9.316;2023-04-30T06:44:32;98379.31;;;17.50;57.22
2785;BME280;57944;48.722;9.316;2023-04-30T06:47:05;98372.84;;;18.00;57.33
2785;BME280;57944;48.722;9.316;2023-04-30T06:49:35;98373.22;;;17.92;57.94
2785;BME280;57944;48.722;9.316;2023-04-30T06:52:04;98373.53;;;17.72;62.28
2785;BME280;57944;48.722;9.316;2023-04-30T06:54:34;98380.66;;;18.79;56.08
2785;BME280;57944;48.722;9.316;2023-04-30T06:57:04;98376.47;;;18.61;54.14
2785;BME280;57944;48.722;9.316;2023-04-30T06:59:35;98383.03;;;18.69;56.52
2785;BME280;57944;48.722;9.316;2023-04-30T07:02:08;98389.03;;;19.42;53.00
2785;BME280;57944;48.722;9.316;2023-04-30T07:04:38;98375.56;;;19.01;51.80
2785;BME280;57944;48.722;9.316;2023-04-30T07:07:08;98387.59;;;18.95;51.84
2785;BME280;57944;48.722;9.316;2023-04-30T07:09:38;98382.16;;;18.75;53.77
2785;BME280;57944;48.722;9.316;2023-04-30T07:12:08;98377.44;;;19.06;52.03
2785;BME280;57944;48.722;9.316;2023-04-30T07:14:39;98366.72;;;19.36;50.99
2785;BME280;57944;48.722;9.316;2023-04-30T07:17:13;98374.16;;;19.32;50.60
2785;BME280;57944;48.722;9.316;2023-04-30T07:19:43;98370.53;;;18.78;52.61
2785;BME280;57944;48.722;9.316;2023-04-30T07:22:12;98375.81;;;19.22;51.43
2785;BME280;57944;48.722;9.316;2023-04-30T07:24:42;98371.75;;;20.41;48.63
2785;BME280;57944;48.722;9.316;2023-04-30T07:27:13;98374.56;;;21.41;47.40
2785;BME280;57944;48.722;9.316;2023-04-30T07:29:42;98361.06;;;21.44;46.43
2785;BME280;57944;48.722;9.316;2023-04-30T07:32:15;98360.44;;;21.22;46.49
2785;BME280;57944;48.722;9.316;2023-04-30T07:34:45;98362.38;;;22.45;43.80
2785;BME280;57944;48.722;9.316;2023-04-30T07:37:15;98357.75;;;21.49;44.66
2785;BME280;57944;48.722;9.316;2023-04-30T07:39:45;98359.44;;;22.06;44.61
2785;BME280;57944;48.722;9.316;2023-04-30T07:42:15;98356.50;;;23.46;41.92
2785;BME280;57944;48.722;9.316;2023-04-30T07:44:45;98356.34;;;23.16;42.13
2785;BME280;57944;48.722;9.316;2023-04-30T07:47:17;98358.72;;;23.08;41.38
2785;BME280;57944;48.722;9.316;2023-04-30T07:49:48;98346.00;;;22.55;41.72
2785;BME280;57944;48.722;9.316;2023-04-30T07:52:19;98348.09;;;22.27;41.98
2785;BME280;57944;48.722;9.316;2023-04-30T07:54:48;98348.50;;;21.73;42.77
2785;BME280;57944;48.722;9.316;2023-04-30T07:57:18;98345.97;;;21.36;44.29
2785;BME280;57944;48.722;9.316;2023-04-30T07:59:48;98350.53;;;21.66;42.85
2785;BME280;57944;48.722;9.316;2023-04-30T08:02:21;98345.25;;;21.40;43.57
2785;BME280;57944;48.722;9.316;2023-04-30T08:04:52;98347.06;;;21.45;43.28
2785;BME280;57944;48.722;9.316;2023-04-30T08:07:22;98345.56;;;21.54;42.27
2785;BME280;57944;48.722;9.316;2023-04-30T08:09:52;98341.81;;;20.82;43.18
2785;BME280;57944;48.722;9.316;2023-04-30T08:12:23;98342.66;;;20.93;43.78
2785;BME280;57944;48.722;9.316;2023-04-30T08:14:58;98346.28;;;22.18;42.08
2785;BME280;57944;48.722;9.316;2023-04-30T08:17:33;98345.16;;;21.30;41.58
2785;BME280;57944;48.722;9.316;2023-04-30T08:20:05;98338.59;;;21.07;42.88
2785;BME280;57944;48.722;9.316;2023-04-30T08:22:35;98335.81;;;22.02;40.30
2785;BME280;57944;48.722;9.316;2023-04-30T08:25:06;98340.81;;;22.55;40.16
2785;BME280;57944;48.722;9.316;2023-04-30T08:27:36;98352.75;;;22.66;39.53
2785;BME280;57944;48.722;9.316;2023-04-30T08:30:07;98340.03;;;20.88;42.35
2785;BME280;57944;48.722;9.316;2023-04-30T08:32:39;98338.91;;;19.87;44.72
2785;BME280;57944;48.722;9.316;2023-04-30T08:35:10;98337.41;;;19.08;45.78
2785;BME280;57944;48.722;9.316;2023-04-30T08:37:39;98343.94;;;18.94;46.75
2785;BME280;57944;48.722;9.316;2023-04-30T08:40:10;98341.59;;;19.31;45.91
2785;BME280;57944;48.722;9.316;2023-04-30T08:42:45;98340.53;;;19.71;45.45
2785;BME280;57944;48.722;9.316;2023-04-30T08:45:19;98348.41;;;19.81;44.53
2785;BME280;57944;48.722;9.316;2023-04-30T08:47:52;98344.28;;;19.41;45.77
2785;BME280;57944;48.722;9.316;2023-04-30T08:50:24;98348.13;;;19.61;44.78
2785;BME280;57944;48.722;9.316;2023-04-30T08:52:54;98343.81;;;19.89;44.21
2785;BME280;57944;48.722;9.316;2023-04-30T08:55:24;98349.31;;;19.70;44.38
2785;BME280;57944;48.722;9.316;2023-04-30T08:57:55;98343.34;;;19.48;45.09
2785;BME280;57944;48.722;9.316;2023-04-30T09:00:25;98343.19;;;19.15;45.39
2785;BME280;57944;48.722;9.316;2023-04-30T09:02:59;98351.09;;;19.26;44.45
2785;BME280;57944;48.722;9.316;2023-04-30T09:05:30;98348.03;;;19.51;44.23
2785;BME280;57944;48.722;9.316;2023-04-30T09:07:59;98345.88;;;19.04;44.78
2785;BME280;57944;48.722;9.316;2023-04-30T09:10:31;98341.56;;;19.09;45.10
2785;BME280;57944;48.722;9.316;2023-04-30T09:13:03;98341.09;;;18.28;45.59
2785;BME280;57944;48.722;9.316;2023-04-30T09:15:35;98342.72;;;17.89;46.05
2785;BME280;57944;48.722;9.316;2023-04-30T09:18:12;98337.91;;;17.69;46.28
2785;BME280;57944;48.722;9.316;2023-04-30T09:20:55;98341.69;;;18.18;45.62
2785;BME280;57944;48.722;9.316;2023-04-30T09:23:26;98339.75;;;17.97;46.24
2785;BME280;57944;48.722;9.316;2023-04-30T09:25:56;98342.16;;;18.15;45.67
2785;BME280;57944;48.722;9.316;2023-04-30T09:28:26;98339.13;;;18.35;44.92
2785;BME280;57944;48.722;9.316;2023-04-30T09:30:58;98336.88;;;18.39;45.54
2785;BME280;57944;48.722;9.316;2023-04-30T09:33:44;98342.38;;;18.76;44.98
2785;BME280;57944;48.722;9.316;2023-04-30T09:36:14;98342.19;;;18.32;46.80
2785;BME280;57944;48.722;9.316;2023-04-30T09:38:44;98348.00;;;18.56;46.27
2785;BME280;57944;48.722;9.316;2023-04-30T09:41:22;98346.50;;;18.94;47.06
2785;BME280;57944;48.722;9.316;2023-04-30T09:43:53;98341.66;;;19.36;47.43
2785;BME280;57944;48.722;9.316;2023-04-30T09:46:29;98339.19;;;19.47;43.60
2785;BME280;57944;48.722;9.316;2023-04-30T09:49:04;98334.63;;;19.98;43.92
2785;BME280;57944;48.722;9.316;2023-04-30T09:51:34;98329.38;;;20.20;44.05
2785;BME280;57944;48.722;9.316;2023-04-30T09:54:06;98333.31;;;20.27;45.96
2785;BME280;57944;48.722;9.316;2023-04-30T09:56:39;98340.63;;;21.05;44.77
2785;BME280;57944;48.722;9.316;2023-04-30T09:59:10;98334.16;;;21.55;43.46
2785;BME280;57944;48.722;9.316;2023-04-30T10:01:42;98342.72;;;21.61;39.81
2785;BME280;57944;48.722;9.316;2023-04-30T10:04:14;98344.41;;;21.30;41.10
2785;BME280;57944;48.722;9.316;2023-04-30T10:06:45;98341.88;;;20.01;40.98
2785;BME280;57944;48.722;9.316;2023-04-30T10:09:16;98338.69;;;20.48;42.10
2785;BME280;57944;48.722;9.316;2023-04-30T10:11:46;98338.03;;;20.63;39.33
2785;BME280;57944;48.722;9.316;2023-04-30T10:14:18;98332.22;;;20.83;39.48
2785;BME280;57944;48.722;9.316;2023-04-30T10:16:52;98329.47;;;21.52;38.74
2785;BME280;57944;48.722;9.316;2023-04-30T10:19:29;98338.41;;;21.92;37.62
2785;BME280;57944;48.722;9.316;2023-04-30T10:22:01;98334.72;;;21.68;36.91
2785;BME280;57944;48.722;9.316;2023-04-30T10:24:31;98327.47;;;21.75;36.78
2785;BME280;57944;48.722;9.316;2023-04-30T10:27:01;98328.81;;;21.93;36.57
2785;BME280;57944;48.722;9.316;2023-04-30T10:29:31;98324.88;;;21.80;36.60
2785;BME280;57944;48.722;9.316;2023-04-30T10:32:02;98321.75;;;21.73;36.37
2785;BME280;57944;48.722;9.316;2023-04-30T10:34:43;98323.50;;;21.47;36.16
2785;BME280;57944;48.722;9.316;2023-04-30T10:37:19;98322.09;;;21.29;37.61
2785;BME280;57944;48.722;9.316;2023-04-30T10:39:51;98322.72;;;21.46;37.27
2785;BME280;57944;48.722;9.316;2023-04-30T10:42:22;98321.81;;;21.98;37.19
2785;BME280;57944;48.722;9.316;2023-04-30T10:44:52;98327.19;;;21.71;36.96
2785;BME280;57944;48.722;9.316;2023-04-30T10:47:27;98321.56;;;22.05;35.99
2785;BME280;57944;48.722;9.316;2023-04-30T10:50:08;98325.44;;;21.97;36.37
2785;BME280;57944;48.722;9.316;2023-04-30T10:52:38;98321.53;;;21.84;35.99
2785;BME280;57944;48.722;9.316;2023-04-30T10:55:09;98322.84;;;21.24;38.63
2785;BME280;57944;48.722;9.316;2023-04-30T10:57:39;98317.44;;;21.31;36.60
2785;BME280;57944;48.722;9.316;2023-04-30T11:00:20;98310.06;;;21.07;38.43
2785;BME280;57944;48.722;9.316;2023-04-30T11:02:57;98316.66;;;20.83;38.34
2785;BME280;57944;48.722;9.316;2023-04-30T11:05:37;98310.44;;;20.79;38.65
2785;BME280;57944;48.722;9.316;2023-04-30T11:08:10;98308.09;;;20.77;38.77
2785;BME280;57944;48.722;9.316;2023-04-30T11:10:56;98304.94;;;21.17;38.92
2785;BME280;57944;48.722;9.316;2023-04-30T11:13:27;98313.94;;;21.05;37.78
2785;BME280;57944;48.722;9.316;2023-04-30T11:16:01;98301.16;;;21.40;37.96
2785;BME280;57944;48.722;9.316;2023-04-30T11:18:32;98303.19;;;22.32;35.90
2785;BME280;57944;48.722;9.316;2023-04-30T11:21:07;98306.66;;;21.54;36.34
2785;BME280;57944;48.722;9.316;2023-04-30T11:23:40;98299.69;;;21.02;37.65
2785;BME280;57944;48.722;9.316;2023-04-30T11:26:11;98293.16;;;19.93;39.45
2785;BME280;57944;48.722;9.316;2023-04-30T11:28:49;98292.41;;;19.92;39.15
2785;BME280;57944;48.722;9.316;2023-04-30T11:31:20;98298.72;;;20.39;39.52
2785;BME280;57944;48.722;9.316;2023-04-30T11:33:51;98295.44;;;20.86;38.75
2785;BME280;57944;48.722;9.316;2023-04-30T11:36:29;98295.22;;;21.50;38.50
2785;BME280;57944;48.722;9.316;2023-04-30T11:39:00;98291.94;;;21.85;36.85
2785;BME280;57944;48.722;9.316;2023-04-30T11:41:39;98287.38;;;21.35;36.72
2785;BME280;57944;48.722;9.316;2023-04-30T11:44:21;98298.13;;;21.01;37.41
2785;BME280;57944;48.722;9.316;2023-04-30T11:46:51;98301.09;;;20.78;38.33
2785;BME280;57944;48.722;9.316;2023-04-30T11:49:21;98289.72;;;20.14;38.17
2785;BME280;57944;48.722;9.316;2023-04-30T11:51:54;98283.44;;;20.37;38.58
2785;BME280;57944;48.722;9.316;2023-04-30T11:54:24;98282.19;;;20.77;37.92
2785;BME280;57944;48.722;9.316;2023-04-30T11:56:55;98271.72;;;20.57;39.42
2785;BME280;57944;48.722;9.316;2023-04-30T11:59:30;98264.41;;;20.96;37.91
2785;BME280;57944;48.722;9.316;2023-04-30T12:02:00;98260.50;;;21.51;38.13
2785;BME280;57944;48.722;9.316;2023-04-30T12:04:30;98261.78;;;21.49;37.20
2785;BME280;57944;48.722;9.316;2023-04-30T12:07:06;98264.19;;;21.76;36.39
2785;BME280;57944;48.722;9.316;2023-04-30T12:09:51;98267.03;;;21.74;37.56
2785;BME280;57944;48.722;9.316;2023-04-30T12:12:26;98268.88;;;22.09;36.55
2785;BME280;57944;48.722;9.316;2023-04-30T12:14:56;98264.97;;;22.53;35.91
2785;BME280;57944;48.722;9.316;2023-04-30T12:17:30;98254.84;;;22.36;36.10
2785;BME280;57944;48.722;9.316;2023-04-30T12:20:02;98273.81;;;22.42;35.76
2785;BME280;57944;48.722;9.316;2023-04-30T12:22:35;98259.28;;;22.25;35.99
2785;BME280;57944;48.722;9.316;2023-04-30T12:25:07;98265.25;;;22.31;36.26
2785;BME280;57944;48.722;9.316;2023-04-30T12:27:41;98265.47;;;21.73;37.31
2785;BME280;57944;48.722;9.316;2023-04-30T12:30:11;98260.31;;;21.10;38.45
2785;BME280;57944;48.722;9.316;2023-04-30T12:32:43;98263.59;;;20.90;39.16
2785;BME280;57944;48.722;9.316;2023-04-30T12:35:14;98266.41;;;20.84;39.07
2785;BME280;57944;48.722;9.316;2023-04-30T12:37:48;98263.78;;;20.73;38.71
2785;BME280;57944;48.722;9.316;2023-04-30T12:40:20;98267.72;;;20.49;39.63
2785;BME280;57944;48.722;9.316;2023-04-30T12:42:50;98259.69;;;21.46;38.42
2785;BME280;57944;48.722;9.316;2023-04-30T12:45:41;98261.31;;;21.72;38.44
2785;BME280;57944;48.722;9.316;2023-04-30T12:48:14;98262.16;;;22.24;37.74
2785;BME280;57944;48.722;9.316;2023-04-30T12:50:51;98259.03;;;23.33;35.47
2785;BME280;57944;48.722;9.316;2023-04-30T12:53:24;98253.25;;;23.41;35.16
2785;BME280;57944;48.722;9.316;2023-04-30T12:56:10;98259.78;;;23.38;35.10
2785;BME280;57944;48.722;9.316;2023-04-30T12:58:42;98240.41;;;23.60;34.95
2785;BME280;57944;48.722;9.316;2023-04-30T13:01:16;98241.34;;;22.55;36.19
2785;BME280;57944;48.722;9.316;2023-04-30T13:03:47;98235.03;;;21.38;37.44
2785;BME280;57944;48.722;9.316;2023-04-30T13:06:20;98225.94;;;20.72;38.74
2785;BME280;57944;48.722;9.316;2023-04-30T13:08:52;98235.69;;;21.08;38.60
2785;BME280;57944;48.722;9.316;2023-04-30T13:11:25;98244.31;;;21.24;38.15
2785;BME280;57944;48.722;9.316;2023-04-30T13:13:55;98234.56;;;21.51;37.41
2785;BME280;57944;48.722;9.316;2023-04-30T13:16:25;98221.22;;;21.22;37.98
2785;BME280;57944;48.722;9.316;2023-04-30T13:18:55;98224.34;;;20.66;38.77
2785;BME280;57944;48.722;9.316;2023-04-30T13:21:25;98230.22;;;20.99;38.20
2785;BME280;57944;48.722;9.316;2023-04-30T13:23:57;98221.38;;;20.90;38.38
2785;BME280;57944;48.722;9.316;2023-04-30T13:26:27;98218.78;;;20.90;38.91
2785;BME280;57944;48.722;9.316;2023-04-30T13:28:57;98206.56;;;21.89;36.96
2785;BME280;57944;48.722;9.316;2023-04-30T13:31:27;98204.50;;;21.96;36.64
2785;BME280;57944;48.722;9.316;2023-04-30T13:33:57;98202.44;;;21.98;37.03
2785;BME280;57944;48.722;9.316;2023-04-30T13:36:27;98212.28;;;21.91;36.78